UAL3918 KORD-KIAD
Flight info
| Callsign | UAL3918 |
|---|---|
| Flight time | 1h 25m |
| Altitude | 37000 |
| Route | MOBLE ADIME OTENS ANEWA JERRI NUSMM MGW GIBBZ5 |
| Aircraft | B738/M-SDE2E3FGHIRWXY/LB1 |
Departure
| Time | 2026-05-06 17:38 |
|---|---|
| Airport | Chicago O'Hare International Airport (KORD) |
Arrival
| Time | 2026-05-06 19:04 |
|---|---|
| Airport | Washington Dulles International Airport (KIAD) |
| Time | Latitude | Longitude | Altitude | Speed | Heading |
|---|---|---|---|---|---|
| 2026-05-06 16:45 | 41.98088 | -87.90707 | 673 ft | 0 kts | 99° |
| 2026-05-06 16:56 | 41.98088 | -87.90708 | 673 ft | 0 kts | 99° |
| 2026-05-06 17:08 | 41.98088 | -87.90709 | 673 ft | 0 kts | 99° |
| 2026-05-06 17:18 | 41.98088 | -87.90710 | 673 ft | 0 kts | 99° |
| 2026-05-06 17:21 | 41.98088 | -87.90712 | 673 ft | 1 kts | 100° |
| 2026-05-06 17:21 | 41.98089 | -87.90720 | 673 ft | 2 kts | 96° |
| 2026-05-06 17:21 | 41.98093 | -87.90745 | 673 ft | 3 kts | 114° |
| 2026-05-06 17:22 | 41.98103 | -87.90766 | 669 ft | 3 kts | 142° |
| 2026-05-06 17:22 | 41.98120 | -87.90778 | 671 ft | 3 kts | 167° |
| 2026-05-06 17:22 | 41.98132 | -87.90781 | 671 ft | 1 kts | 174° |
| 2026-05-06 17:22 | 41.98135 | -87.90781 | 671 ft | 0 kts | 174° |
| 2026-05-06 17:28 | 41.98131 | -87.90781 | 673 ft | 1 kts | 174° |
| 2026-05-06 17:28 | 41.98115 | -87.90779 | 673 ft | 3 kts | 175° |
| 2026-05-06 17:29 | 41.98086 | -87.90776 | 673 ft | 5 kts | 178° |
| 2026-05-06 17:29 | 41.98046 | -87.90777 | 673 ft | 7 kts | 182° |
| 2026-05-06 17:29 | 41.97995 | -87.90784 | 673 ft | 8 kts | 193° |
| 2026-05-06 17:29 | 41.97936 | -87.90806 | 673 ft | 10 kts | 192° |
| 2026-05-06 17:30 | 41.97864 | -87.90823 | 673 ft | 11 kts | 189° |
| 2026-05-06 17:30 | 41.97781 | -87.90843 | 673 ft | 13 kts | 191° |
| 2026-05-06 17:30 | 41.97687 | -87.90864 | 673 ft | 14 kts | 189° |
| 2026-05-06 17:30 | 41.97608 | -87.90935 | 673 ft | 15 kts | 245° |
| 2026-05-06 17:31 | 41.97578 | -87.91054 | 671 ft | 11 kts | 248° |
| 2026-05-06 17:31 | 41.97517 | -87.91087 | 673 ft | 11 kts | 154° |
| 2026-05-06 17:31 | 41.97453 | -87.91021 | 673 ft | 13 kts | 142° |
| 2026-05-06 17:31 | 41.97384 | -87.90938 | 673 ft | 14 kts | 137° |
| 2026-05-06 17:32 | 41.97312 | -87.90839 | 673 ft | 15 kts | 135° |
| 2026-05-06 17:32 | 41.97255 | -87.90775 | 673 ft | 10 kts | 161° |
| 2026-05-06 17:32 | 41.97185 | -87.90766 | 671 ft | 11 kts | 143° |
| 2026-05-06 17:32 | 41.97155 | -87.90672 | 673 ft | 12 kts | 95° |
| 2026-05-06 17:33 | 41.97150 | -87.90552 | 673 ft | 14 kts | 94° |
| 2026-05-06 17:33 | 41.97141 | -87.90417 | 673 ft | 15 kts | 95° |
| 2026-05-06 17:33 | 41.97138 | -87.90268 | 673 ft | 17 kts | 89° |
| 2026-05-06 17:33 | 41.97101 | -87.90139 | 671 ft | 16 kts | 158° |
| 2026-05-06 17:34 | 41.97043 | -87.90022 | 673 ft | 17 kts | 87° |
| 2026-05-06 17:34 | 41.97046 | -87.89857 | 673 ft | 18 kts | 92° |
| 2026-05-06 17:34 | 41.97044 | -87.89680 | 673 ft | 20 kts | 90° |
| 2026-05-06 17:34 | 41.97046 | -87.89492 | 673 ft | 20 kts | 94° |
| 2026-05-06 17:35 | 41.97045 | -87.89307 | 672 ft | 20 kts | 90° |
| 2026-05-06 17:35 | 41.97043 | -87.89123 | 671 ft | 18 kts | 91° |
| 2026-05-06 17:35 | 41.97043 | -87.88954 | 671 ft | 19 kts | 88° |
| 2026-05-06 17:36 | 41.97044 | -87.88589 | 671 ft | 20 kts | 92° |
| 2026-05-06 17:36 | 41.97042 | -87.88394 | 671 ft | 21 kts | 89° |
| 2026-05-06 17:36 | 41.97046 | -87.88192 | 672 ft | 20 kts | 91° |
| 2026-05-06 17:36 | 41.97046 | -87.88121 | 672 ft | 0 kts | 89° |
| 2026-05-06 17:37 | 41.97045 | -87.88108 | 672 ft | 3 kts | 93° |
| 2026-05-06 17:37 | 41.97030 | -87.88059 | 672 ft | 10 kts | 131° |
| 2026-05-06 17:37 | 41.96938 | -87.88041 | 672 ft | 17 kts | 206° |
| 2026-05-06 17:37 | 41.96888 | -87.88096 | 672 ft | 1 kts | 220° |
| 2026-05-06 17:38 | 41.96799 | -87.88207 | 670 ft | 46 kts | 224° |
| 2026-05-06 17:38 | 41.96359 | -87.88730 | 673 ft | 120 kts | 221° |
| 2026-05-06 17:38 | 41.95583 | -87.89621 | 845 ft | 163 kts | 223° |
| 2026-05-06 17:38 | 41.94743 | -87.90479 | 1901 ft | 140 kts | 222° |
| 2026-05-06 17:39 | 41.93900 | -87.91264 | 2428 ft | 157 kts | 211° |
| 2026-05-06 17:39 | 41.92743 | -87.91326 | 2679 ft | 184 kts | 159° |
| 2026-05-06 17:39 | 41.91843 | -87.90041 | 2884 ft | 204 kts | 107° |
| 2026-05-06 17:39 | 41.91961 | -87.88138 | 3079 ft | 216 kts | 58° |
| 2026-05-06 17:40 | 41.92968 | -87.86606 | 3328 ft | 226 kts | 42° |
| 2026-05-06 17:40 | 41.94100 | -87.85068 | 3514 ft | 242 kts | 44° |
| 2026-05-06 17:40 | 41.95044 | -87.83121 | 3729 ft | 254 kts | 69° |
| 2026-05-06 17:40 | 41.95356 | -87.80801 | 4223 ft | 254 kts | 86° |
| 2026-05-06 17:41 | 41.95396 | -87.78375 | 4730 ft | 263 kts | 89° |
| 2026-05-06 17:41 | 41.95404 | -87.75920 | 5585 ft | 268 kts | 89° |
| 2026-05-06 17:41 | 41.95399 | -87.73342 | 6127 ft | 285 kts | 90° |
| 2026-05-06 17:41 | 41.95384 | -87.70665 | 6953 ft | 286 kts | 91° |
| 2026-05-06 17:42 | 41.95362 | -87.67997 | 7650 ft | 294 kts | 90° |
| 2026-05-06 17:42 | 41.95335 | -87.65229 | 8391 ft | 298 kts | 91° |
| 2026-05-06 17:42 | 41.95306 | -87.62415 | 9096 ft | 305 kts | 91° |
| 2026-05-06 17:42 | 41.95275 | -87.59543 | 9814 ft | 310 kts | 91° |
| 2026-05-06 17:43 | 41.95241 | -87.56612 | 10371 ft | 320 kts | 91° |
| 2026-05-06 17:43 | 41.95205 | -87.53550 | 10769 ft | 335 kts | 91° |
| 2026-05-06 17:43 | 41.95168 | -87.50375 | 11303 ft | 344 kts | 91° |
| 2026-05-06 17:43 | 41.95128 | -87.47146 | 12004 ft | 349 kts | 92° |
| 2026-05-06 17:44 | 41.95087 | -87.43857 | 12672 ft | 355 kts | 92° |
| 2026-05-06 17:44 | 41.95045 | -87.40559 | 13365 ft | 361 kts | 92° |
| 2026-05-06 17:44 | 41.95001 | -87.37164 | 14044 ft | 367 kts | 92° |
| 2026-05-06 17:44 | 41.94956 | -87.33712 | 14686 ft | 372 kts | 92° |
| 2026-05-06 17:45 | 41.94908 | -87.30214 | 15373 ft | 376 kts | 93° |
| 2026-05-06 17:45 | 41.94859 | -87.26684 | 16067 ft | 381 kts | 93° |
| 2026-05-06 17:45 | 41.94808 | -87.23102 | 16726 ft | 386 kts | 93° |
| 2026-05-06 17:45 | 41.94755 | -87.19474 | 17371 ft | 391 kts | 94° |
| 2026-05-06 17:46 | 41.94701 | -87.15796 | 18010 ft | 397 kts | 94° |
| 2026-05-06 17:46 | 41.94645 | -87.12120 | 18588 ft | 401 kts | 94° |
| 2026-05-06 17:46 | 41.94588 | -87.08356 | 19133 ft | 405 kts | 94° |
| 2026-05-06 17:46 | 41.94617 | -87.04544 | 19678 ft | 410 kts | 91° |
| 2026-05-06 17:47 | 41.94691 | -87.00691 | 20215 ft | 414 kts | 91° |
| 2026-05-06 17:47 | 41.94755 | -86.96806 | 20766 ft | 418 kts | 91° |
| 2026-05-06 17:47 | 41.94814 | -86.92873 | 21216 ft | 424 kts | 92° |
| 2026-05-06 17:47 | 41.94871 | -86.88908 | 21803 ft | 426 kts | 92° |
| 2026-05-06 17:48 | 41.94926 | -86.84965 | 22278 ft | 430 kts | 92° |
| 2026-05-06 17:48 | 41.94982 | -86.80931 | 22783 ft | 434 kts | 92° |
| 2026-05-06 17:48 | 41.95036 | -86.76871 | 23275 ft | 437 kts | 92° |
| 2026-05-06 17:48 | 41.95089 | -86.72765 | 23737 ft | 441 kts | 93° |
| 2026-05-06 17:49 | 41.95142 | -86.68625 | 24119 ft | 445 kts | 93° |
| 2026-05-06 17:49 | 41.95193 | -86.64454 | 24502 ft | 449 kts | 93° |
| 2026-05-06 17:49 | 41.95244 | -86.60246 | 24874 ft | 452 kts | 93° |
| 2026-05-06 17:49 | 41.95292 | -86.56007 | 25228 ft | 456 kts | 93° |
| 2026-05-06 17:50 | 41.95340 | -86.51726 | 25602 ft | 460 kts | 93° |
| 2026-05-06 17:50 | 41.95386 | -86.47471 | 25950 ft | 464 kts | 93° |
| 2026-05-06 17:50 | 41.95431 | -86.43126 | 26309 ft | 467 kts | 93° |
| 2026-05-06 17:50 | 41.95475 | -86.38746 | 26656 ft | 471 kts | 93° |
| 2026-05-06 17:51 | 41.95518 | -86.34325 | 27006 ft | 474 kts | 93° |
| 2026-05-06 17:51 | 41.95559 | -86.29878 | 27349 ft | 478 kts | 93° |
| 2026-05-06 17:51 | 41.95600 | -86.25394 | 27680 ft | 482 kts | 93° |
| 2026-05-06 17:51 | 41.95437 | -86.20915 | 27978 ft | 478 kts | 107° |
| 2026-05-06 17:52 | 41.94653 | -86.16672 | 28292 ft | 476 kts | 111° |
| 2026-05-06 17:52 | 41.93832 | -86.12340 | 28552 ft | 481 kts | 111° |
| 2026-05-06 17:52 | 41.92993 | -86.07986 | 28894 ft | 483 kts | 111° |
| 2026-05-06 17:52 | 41.92134 | -86.03602 | 29177 ft | 487 kts | 112° |
| 2026-05-06 17:53 | 41.91265 | -85.99196 | 29416 ft | 491 kts | 112° |
| 2026-05-06 17:53 | 41.90381 | -85.94728 | 29555 ft | 499 kts | 112° |
| 2026-05-06 17:53 | 41.89486 | -85.90215 | 29868 ft | 501 kts | 112° |
| 2026-05-06 17:53 | 41.88586 | -85.85683 | 30132 ft | 505 kts | 112° |
| 2026-05-06 17:54 | 41.87688 | -85.81174 | 30365 ft | 508 kts | 112° |
| 2026-05-06 17:54 | 41.86772 | -85.76584 | 30589 ft | 511 kts | 112° |
| 2026-05-06 17:54 | 41.85847 | -85.71960 | 30819 ft | 515 kts | 112° |
| 2026-05-06 17:54 | 41.84914 | -85.67310 | 31049 ft | 518 kts | 112° |
| 2026-05-06 17:55 | 41.83975 | -85.62638 | 31275 ft | 521 kts | 112° |
| 2026-05-06 17:55 | 41.83027 | -85.57934 | 31495 ft | 524 kts | 112° |
| 2026-05-06 17:55 | 41.82074 | -85.53212 | 31715 ft | 527 kts | 112° |
| 2026-05-06 17:55 | 41.81112 | -85.48461 | 31932 ft | 530 kts | 112° |
| 2026-05-06 17:56 | 41.80143 | -85.43683 | 32148 ft | 533 kts | 112° |
| 2026-05-06 17:56 | 41.79179 | -85.38945 | 32295 ft | 537 kts | 112° |
| 2026-05-06 17:56 | 41.78193 | -85.34108 | 32502 ft | 539 kts | 112° |
| 2026-05-06 17:56 | 41.77199 | -85.29245 | 32709 ft | 542 kts | 112° |
| 2026-05-06 17:57 | 41.76199 | -85.24360 | 32905 ft | 545 kts | 112° |
| 2026-05-06 17:57 | 41.75193 | -85.19458 | 33122 ft | 548 kts | 112° |
| 2026-05-06 17:57 | 41.74178 | -85.14527 | 33327 ft | 551 kts | 112° |
| 2026-05-06 17:57 | 41.73157 | -85.09576 | 33527 ft | 553 kts | 112° |
| 2026-05-06 17:58 | 41.72142 | -85.04667 | 33718 ft | 556 kts | 112° |
| 2026-05-06 17:58 | 41.71105 | -84.99665 | 33880 ft | 559 kts | 112° |
| 2026-05-06 17:58 | 41.70062 | -84.94644 | 34061 ft | 562 kts | 112° |
| 2026-05-06 17:58 | 41.69013 | -84.89602 | 34273 ft | 563 kts | 112° |
| 2026-05-06 17:59 | 41.67963 | -84.84567 | 34537 ft | 562 kts | 112° |
| 2026-05-06 17:59 | 41.66949 | -84.79505 | 34779 ft | 566 kts | 107° |
| 2026-05-06 17:59 | 41.66523 | -84.74240 | 35070 ft | 571 kts | 96° |
| 2026-05-06 17:59 | 41.66289 | -84.68935 | 35274 ft | 572 kts | 97° |
| 2026-05-06 18:00 | 41.66044 | -84.63690 | 35478 ft | 573 kts | 97° |
| 2026-05-06 18:00 | 41.65811 | -84.58380 | 35752 ft | 572 kts | 96° |
| 2026-05-06 18:00 | 41.65581 | -84.53087 | 36090 ft | 569 kts | 96° |
| 2026-05-06 18:00 | 41.65350 | -84.47818 | 36422 ft | 566 kts | 97° |
| 2026-05-06 18:01 | 41.65118 | -84.42578 | 36762 ft | 563 kts | 97° |
| 2026-05-06 18:01 | 41.64884 | -84.37365 | 37019 ft | 562 kts | 97° |
| 2026-05-06 18:01 | 41.64411 | -84.26972 | 36932 ft | 557 kts | 97° |
| 2026-05-06 18:02 | 41.63935 | -84.16703 | 36999 ft | 560 kts | 97° |
| 2026-05-06 18:02 | 41.63443 | -84.06301 | 36977 ft | 559 kts | 97° |
| 2026-05-06 18:03 | 41.62943 | -83.95922 | 36981 ft | 560 kts | 97° |
| 2026-05-06 18:03 | 41.62433 | -83.85544 | 36971 ft | 560 kts | 97° |
| 2026-05-06 18:04 | 41.61917 | -83.75220 | 36980 ft | 560 kts | 97° |
| 2026-05-06 18:04 | 41.61390 | -83.64840 | 36973 ft | 560 kts | 97° |
| 2026-05-06 18:05 | 41.60909 | -83.59703 | 36953 ft | 552 kts | 110° |
| 2026-05-06 18:05 | 41.59832 | -83.54841 | 37013 ft | 547 kts | 113° |
| 2026-05-06 18:05 | 41.58772 | -83.49935 | 36868 ft | 551 kts | 113° |
| 2026-05-06 18:05 | 41.57695 | -83.45022 | 36950 ft | 551 kts | 113° |
| 2026-05-06 18:06 | 41.55506 | -83.35250 | 36983 ft | 555 kts | 114° |
| 2026-05-06 18:06 | 41.53284 | -83.25388 | 36988 ft | 555 kts | 114° |
| 2026-05-06 18:07 | 41.51055 | -83.15537 | 36955 ft | 554 kts | 114° |
| 2026-05-06 18:07 | 41.48813 | -83.05678 | 36976 ft | 556 kts | 114° |
| 2026-05-06 18:08 | 41.46578 | -82.95889 | 36977 ft | 555 kts | 114° |
| 2026-05-06 18:08 | 41.44319 | -82.86040 | 36980 ft | 555 kts | 114° |
| 2026-05-06 18:09 | 41.42053 | -82.76202 | 36934 ft | 556 kts | 114° |
| 2026-05-06 18:09 | 41.39771 | -82.66333 | 36990 ft | 559 kts | 114° |
| 2026-05-06 18:10 | 41.38474 | -82.61495 | 36954 ft | 546 kts | 126° |
| 2026-05-06 18:10 | 41.36471 | -82.57395 | 36962 ft | 515 kts | 143° |
| 2026-05-06 18:10 | 41.31847 | -82.50138 | 36950 ft | 520 kts | 142° |
| 2026-05-06 18:11 | 41.27162 | -82.42771 | 36992 ft | 524 kts | 143° |
| 2026-05-06 18:11 | 41.22438 | -82.35399 | 36982 ft | 524 kts | 143° |
| 2026-05-06 18:12 | 41.17738 | -82.28084 | 36983 ft | 524 kts | 143° |
| 2026-05-06 18:12 | 41.13005 | -82.20736 | 36980 ft | 524 kts | 143° |
| 2026-05-06 18:13 | 41.08269 | -82.13401 | 36976 ft | 523 kts | 143° |
| 2026-05-06 18:13 | 41.03518 | -82.06061 | 36964 ft | 526 kts | 143° |
| 2026-05-06 18:14 | 40.98732 | -81.98683 | 36957 ft | 528 kts | 143° |
| 2026-05-06 18:14 | 40.93980 | -81.91377 | 36966 ft | 527 kts | 143° |
| 2026-05-06 18:15 | 40.89192 | -81.84032 | 36957 ft | 527 kts | 143° |
| 2026-05-06 18:15 | 40.84399 | -81.76699 | 36959 ft | 527 kts | 143° |
| 2026-05-06 18:16 | 40.79597 | -81.69369 | 36956 ft | 528 kts | 143° |
| 2026-05-06 18:16 | 40.74819 | -81.62093 | 36913 ft | 528 kts | 143° |
| 2026-05-06 18:17 | 40.70002 | -81.54774 | 36944 ft | 529 kts | 143° |
| 2026-05-06 18:17 | 40.65180 | -81.47467 | 36948 ft | 528 kts | 143° |
| 2026-05-06 18:18 | 40.60356 | -81.40173 | 36953 ft | 528 kts | 143° |
| 2026-05-06 18:18 | 40.55564 | -81.32945 | 36936 ft | 528 kts | 143° |
| 2026-05-06 18:19 | 40.50726 | -81.25666 | 36936 ft | 528 kts | 143° |
| 2026-05-06 18:19 | 40.45892 | -81.18410 | 36933 ft | 528 kts | 143° |
| 2026-05-06 18:20 | 40.41056 | -81.11169 | 36954 ft | 528 kts | 143° |
| 2026-05-06 18:20 | 40.36248 | -81.03984 | 36937 ft | 527 kts | 143° |
| 2026-05-06 18:21 | 40.31406 | -80.96767 | 36937 ft | 527 kts | 144° |
| 2026-05-06 18:21 | 40.26559 | -80.89561 | 36911 ft | 527 kts | 143° |
| 2026-05-06 18:22 | 40.21711 | -80.82368 | 36937 ft | 528 kts | 143° |
| 2026-05-06 18:22 | 40.16882 | -80.75221 | 36935 ft | 527 kts | 144° |
| 2026-05-06 18:23 | 40.12023 | -80.68047 | 36942 ft | 527 kts | 144° |
| 2026-05-06 18:23 | 40.07159 | -80.60880 | 36894 ft | 527 kts | 144° |
| 2026-05-06 18:24 | 40.02285 | -80.53717 | 36910 ft | 528 kts | 144° |
| 2026-05-06 18:24 | 39.97429 | -80.46600 | 36923 ft | 529 kts | 144° |
| 2026-05-06 18:25 | 39.92534 | -80.39437 | 36911 ft | 529 kts | 144° |
| 2026-05-06 18:25 | 39.87643 | -80.32298 | 36916 ft | 529 kts | 144° |
| 2026-05-06 18:26 | 39.82741 | -80.25162 | 36872 ft | 529 kts | 144° |
| 2026-05-06 18:26 | 39.77835 | -80.18033 | 36924 ft | 530 kts | 143° |
| 2026-05-06 18:27 | 39.72964 | -80.10972 | 36458 ft | 527 kts | 143° |
| 2026-05-06 18:27 | 39.70495 | -80.07402 | 35440 ft | 537 kts | 143° |
| 2026-05-06 18:27 | 39.67982 | -80.03768 | 34466 ft | 545 kts | 143° |
| 2026-05-06 18:28 | 39.65441 | -80.00093 | 33739 ft | 547 kts | 142° |
| 2026-05-06 18:28 | 39.62922 | -79.96438 | 33293 ft | 538 kts | 143° |
| 2026-05-06 18:28 | 39.60443 | -79.92873 | 33054 ft | 527 kts | 143° |
| 2026-05-06 18:28 | 39.58008 | -79.89365 | 32617 ft | 522 kts | 141° |
| 2026-05-06 18:29 | 39.55925 | -79.85512 | 31983 ft | 541 kts | 125° |
| 2026-05-06 18:29 | 39.54588 | -79.80896 | 31310 ft | 555 kts | 107° |
| 2026-05-06 18:29 | 39.53872 | -79.75977 | 30763 ft | 552 kts | 106° |
| 2026-05-06 18:29 | 39.53037 | -79.71157 | 30353 ft | 545 kts | 107° |
| 2026-05-06 18:30 | 39.52179 | -79.66401 | 29817 ft | 541 kts | 108° |
| 2026-05-06 18:30 | 39.51309 | -79.61668 | 29169 ft | 539 kts | 108° |
| 2026-05-06 18:30 | 39.50439 | -79.56960 | 28593 ft | 536 kts | 108° |
| 2026-05-06 18:30 | 39.49594 | -79.52339 | 28050 ft | 533 kts | 108° |
| 2026-05-06 18:31 | 39.48758 | -79.47670 | 27459 ft | 531 kts | 108° |
| 2026-05-06 18:31 | 39.47923 | -79.43037 | 26973 ft | 527 kts | 108° |
| 2026-05-06 18:31 | 39.47081 | -79.38434 | 26376 ft | 524 kts | 108° |
| 2026-05-06 18:31 | 39.46242 | -79.33864 | 25898 ft | 520 kts | 108° |
| 2026-05-06 18:32 | 39.45408 | -79.29332 | 25381 ft | 517 kts | 108° |
| 2026-05-06 18:32 | 39.44575 | -79.24816 | 24835 ft | 515 kts | 108° |
| 2026-05-06 18:32 | 39.43747 | -79.20329 | 24300 ft | 513 kts | 108° |
| 2026-05-06 18:32 | 39.42966 | -79.15892 | 23742 ft | 512 kts | 107° |
| 2026-05-06 18:33 | 39.42183 | -79.11411 | 23223 ft | 509 kts | 108° |
| 2026-05-06 18:33 | 39.41399 | -79.06960 | 22642 ft | 506 kts | 107° |
| 2026-05-06 18:33 | 39.40618 | -79.02542 | 22114 ft | 502 kts | 106° |
| 2026-05-06 18:33 | 39.39841 | -78.98155 | 21620 ft | 498 kts | 107° |
| 2026-05-06 18:34 | 39.39069 | -78.93813 | 21101 ft | 495 kts | 106° |
| 2026-05-06 18:34 | 39.38295 | -78.89483 | 20421 ft | 495 kts | 106° |
| 2026-05-06 18:34 | 39.37520 | -78.85155 | 19850 ft | 492 kts | 106° |
| 2026-05-06 18:34 | 39.36758 | -78.80912 | 19218 ft | 491 kts | 105° |
| 2026-05-06 18:35 | 39.35987 | -78.76626 | 18622 ft | 489 kts | 105° |
| 2026-05-06 18:35 | 39.35218 | -78.72359 | 18002 ft | 487 kts | 105° |
| 2026-05-06 18:35 | 39.34449 | -78.68105 | 17387 ft | 483 kts | 105° |
| 2026-05-06 18:35 | 39.33688 | -78.63907 | 16823 ft | 478 kts | 105° |
| 2026-05-06 18:36 | 39.32934 | -78.59749 | 16222 ft | 474 kts | 105° |
| 2026-05-06 18:36 | 39.32187 | -78.55616 | 15623 ft | 471 kts | 105° |
| 2026-05-06 18:36 | 39.31452 | -78.51520 | 15128 ft | 465 kts | 105° |
| 2026-05-06 18:36 | 39.30731 | -78.47523 | 14625 ft | 461 kts | 106° |
| 2026-05-06 18:37 | 39.30006 | -78.43506 | 14128 ft | 458 kts | 105° |
| 2026-05-06 18:37 | 39.29282 | -78.39511 | 13573 ft | 456 kts | 106° |
| 2026-05-06 18:37 | 39.28180 | -78.35730 | 12895 ft | 447 kts | 124° |
| 2026-05-06 18:37 | 39.26461 | -78.32441 | 12384 ft | 438 kts | 129° |
| 2026-05-06 18:38 | 39.24761 | -78.29218 | 11946 ft | 432 kts | 129° |
| 2026-05-06 18:38 | 39.23085 | -78.26030 | 11466 ft | 426 kts | 129° |
| 2026-05-06 18:38 | 39.21431 | -78.22883 | 11001 ft | 421 kts | 129° |
| 2026-05-06 18:38 | 39.19824 | -78.19827 | 10594 ft | 413 kts | 128° |
| 2026-05-06 18:39 | 39.18229 | -78.16797 | 10264 ft | 405 kts | 128° |
| 2026-05-06 18:39 | 39.16662 | -78.13825 | 9944 ft | 397 kts | 129° |
| 2026-05-06 18:39 | 39.15133 | -78.10922 | 9733 ft | 386 kts | 129° |
| 2026-05-06 18:40 | 39.12200 | -78.05368 | 9337 ft | 365 kts | 129° |
| 2026-05-06 18:40 | 39.10789 | -78.02697 | 9145 ft | 355 kts | 129° |
| 2026-05-06 18:40 | 39.09417 | -78.00105 | 8961 ft | 346 kts | 129° |
| 2026-05-06 18:40 | 39.08063 | -77.97554 | 8564 ft | 345 kts | 129° |
| 2026-05-06 18:41 | 39.06707 | -77.95000 | 8118 ft | 345 kts | 129° |
| 2026-05-06 18:41 | 39.05374 | -77.92491 | 7738 ft | 343 kts | 129° |
| 2026-05-06 18:41 | 39.04034 | -77.89969 | 7395 ft | 340 kts | 129° |
| 2026-05-06 18:41 | 39.02704 | -77.87468 | 7062 ft | 337 kts | 129° |
| 2026-05-06 18:42 | 39.01397 | -77.85008 | 6856 ft | 330 kts | 129° |
| 2026-05-06 18:42 | 39.00108 | -77.82585 | 6590 ft | 326 kts | 129° |
| 2026-05-06 18:42 | 38.98836 | -77.80194 | 6378 ft | 322 kts | 129° |
| 2026-05-06 18:42 | 38.97583 | -77.77837 | 6154 ft | 317 kts | 128° |
| 2026-05-06 18:43 | 38.96573 | -77.75366 | 6101 ft | 311 kts | 107° |
| 2026-05-06 18:43 | 38.96254 | -77.72674 | 6694 ft | 305 kts | 99° |
| 2026-05-06 18:43 | 38.95963 | -77.69988 | 7764 ft | 306 kts | 100° |
| 2026-05-06 18:43 | 38.95668 | -77.67276 | 8435 ft | 302 kts | 100° |
| 2026-05-06 18:44 | 38.95647 | -77.64562 | 7968 ft | 310 kts | 77° |
| 2026-05-06 18:44 | 38.96496 | -77.62079 | 7687 ft | 301 kts | 49° |
| 2026-05-06 18:44 | 38.97980 | -77.60271 | 7333 ft | 291 kts | 27° |
| 2026-05-06 18:44 | 38.99677 | -77.58864 | 7026 ft | 289 kts | 25° |
| 2026-05-06 18:45 | 39.01441 | -77.57766 | 6715 ft | 274 kts | 3° |
| 2026-05-06 18:45 | 39.03284 | -77.57582 | 6449 ft | 263 kts | 353° |
| 2026-05-06 18:45 | 39.05087 | -77.57532 | 6185 ft | 261 kts | 352° |
| 2026-05-06 18:45 | 39.06888 | -77.57503 | 6015 ft | 259 kts | 352° |
| 2026-05-06 18:46 | 39.08698 | -77.57487 | 6015 ft | 261 kts | 352° |
| 2026-05-06 18:46 | 39.10517 | -77.57477 | 6009 ft | 261 kts | 352° |
| 2026-05-06 18:46 | 39.12337 | -77.57471 | 5997 ft | 262 kts | 352° |
| 2026-05-06 18:46 | 39.14159 | -77.57468 | 6033 ft | 262 kts | 352° |
| 2026-05-06 18:47 | 39.15987 | -77.57481 | 6015 ft | 262 kts | 351° |
| 2026-05-06 18:47 | 39.17790 | -77.57498 | 6007 ft | 263 kts | 351° |
| 2026-05-06 18:47 | 39.19616 | -77.57517 | 6034 ft | 263 kts | 352° |
| 2026-05-06 18:47 | 39.21467 | -77.57531 | 6491 ft | 265 kts | 351° |
| 2026-05-06 18:48 | 39.23314 | -77.57547 | 7388 ft | 263 kts | 351° |
| 2026-05-06 18:48 | 39.25139 | -77.57565 | 7009 ft | 267 kts | 351° |
| 2026-05-06 18:48 | 39.27007 | -77.57585 | 6663 ft | 267 kts | 351° |
| 2026-05-06 18:48 | 39.28860 | -77.57605 | 6347 ft | 266 kts | 351° |
| 2026-05-06 18:49 | 39.30704 | -77.57625 | 6072 ft | 263 kts | 351° |
| 2026-05-06 18:49 | 39.32532 | -77.57644 | 5992 ft | 264 kts | 351° |
| 2026-05-06 18:49 | 39.34352 | -77.57662 | 6004 ft | 265 kts | 351° |
| 2026-05-06 18:49 | 39.36200 | -77.57683 | 5981 ft | 265 kts | 352° |
| 2026-05-06 18:50 | 39.38054 | -77.57703 | 5993 ft | 268 kts | 352° |
| 2026-05-06 18:50 | 39.39927 | -77.57723 | 6008 ft | 269 kts | 352° |
| 2026-05-06 18:50 | 39.41708 | -77.57743 | 6001 ft | 270 kts | 352° |
| 2026-05-06 18:51 | 39.43165 | -77.57759 | 6002 ft | 269 kts | 352° |
| 2026-05-06 18:51 | 39.45038 | -77.57779 | 5997 ft | 270 kts | 352° |
| 2026-05-06 18:51 | 39.46887 | -77.57801 | 6010 ft | 270 kts | 351° |
| 2026-05-06 18:52 | 39.48779 | -77.57639 | 5978 ft | 279 kts | 6° |
| 2026-05-06 18:52 | 39.50589 | -77.56637 | 6008 ft | 290 kts | 27° |
| 2026-05-06 18:52 | 39.52086 | -77.54844 | 5996 ft | 297 kts | 50° |
| 2026-05-06 18:52 | 39.53054 | -77.52471 | 6005 ft | 301 kts | 71° |
| 2026-05-06 18:53 | 39.53425 | -77.49806 | 6016 ft | 302 kts | 86° |
| 2026-05-06 18:53 | 39.53578 | -77.47084 | 5999 ft | 304 kts | 87° |
| 2026-05-06 18:53 | 39.53679 | -77.44360 | 5998 ft | 302 kts | 95° |
| 2026-05-06 18:53 | 39.53111 | -77.41871 | 5979 ft | 288 kts | 129° |
| 2026-05-06 18:54 | 39.51694 | -77.40212 | 5994 ft | 268 kts | 163° |
| 2026-05-06 18:54 | 39.49953 | -77.39877 | 5995 ft | 246 kts | 199° |
| 2026-05-06 18:54 | 39.48453 | -77.40751 | 6030 ft | 234 kts | 222° |
| 2026-05-06 18:54 | 39.47318 | -77.42225 | 6030 ft | 231 kts | 233° |
| 2026-05-06 18:55 | 39.46288 | -77.43822 | 6012 ft | 232 kts | 231° |
| 2026-05-06 18:55 | 39.44891 | -77.44908 | 6003 ft | 244 kts | 202° |
| 2026-05-06 18:55 | 39.43166 | -77.45152 | 6048 ft | 252 kts | 190° |
| 2026-05-06 18:55 | 39.41434 | -77.45220 | 5987 ft | 253 kts | 189° |
| 2026-05-06 18:56 | 39.39672 | -77.45273 | 6003 ft | 254 kts | 189° |
| 2026-05-06 18:56 | 39.37905 | -77.45316 | 5998 ft | 254 kts | 189° |
| 2026-05-06 18:56 | 39.36133 | -77.45351 | 5994 ft | 255 kts | 188° |
| 2026-05-06 18:56 | 39.34360 | -77.45382 | 5983 ft | 256 kts | 189° |
| 2026-05-06 18:57 | 39.32571 | -77.45411 | 5993 ft | 258 kts | 188° |
| 2026-05-06 18:57 | 39.30774 | -77.45438 | 5994 ft | 259 kts | 188° |
| 2026-05-06 18:57 | 39.28975 | -77.45466 | 6001 ft | 259 kts | 188° |
| 2026-05-06 18:57 | 39.27197 | -77.45490 | 5997 ft | 259 kts | 188° |
| 2026-05-06 18:58 | 39.25398 | -77.45516 | 5998 ft | 258 kts | 188° |
| 2026-05-06 18:58 | 39.23602 | -77.45543 | 6007 ft | 259 kts | 188° |
| 2026-05-06 18:58 | 39.21796 | -77.45569 | 6006 ft | 260 kts | 188° |
| 2026-05-06 18:58 | 39.19992 | -77.45594 | 5982 ft | 255 kts | 188° |
| 2026-05-06 18:59 | 39.18236 | -77.45618 | 5187 ft | 253 kts | 187° |
| 2026-05-06 18:59 | 39.16497 | -77.45643 | 4680 ft | 242 kts | 187° |
| 2026-05-06 18:59 | 39.14799 | -77.45670 | 4258 ft | 245 kts | 187° |
| 2026-05-06 18:59 | 39.13096 | -77.45695 | 3875 ft | 244 kts | 186° |
| 2026-05-06 19:00 | 39.11429 | -77.45719 | 3492 ft | 232 kts | 186° |
| 2026-05-06 19:00 | 39.09900 | -77.45741 | 3122 ft | 215 kts | 185° |
| 2026-05-06 19:00 | 39.08464 | -77.45763 | 2788 ft | 199 kts | 186° |
| 2026-05-06 19:00 | 39.07550 | -77.45777 | 2583 ft | 190 kts | 186° |
| 2026-05-06 19:01 | 39.05868 | -77.45803 | 2202 ft | 175 kts | 184° |
| 2026-05-06 19:01 | 39.04679 | -77.45821 | 1911 ft | 166 kts | 184° |
| 2026-05-06 19:01 | 39.03559 | -77.45833 | 1662 ft | 156 kts | 184° |
| 2026-05-06 19:01 | 39.02511 | -77.45848 | 1397 ft | 146 kts | 183° |
| 2026-05-06 19:02 | 39.01528 | -77.45865 | 1157 ft | 137 kts | 184° |
| 2026-05-06 19:02 | 39.00584 | -77.45922 | 953 ft | 136 kts | 183° |
| 2026-05-06 19:02 | 38.99664 | -77.45972 | 819 ft | 134 kts | 181° |
| 2026-05-06 19:02 | 38.98731 | -77.45919 | 693 ft | 134 kts | 180° |
| 2026-05-06 19:03 | 38.97796 | -77.45916 | 553 ft | 134 kts | 181° |
| 2026-05-06 19:03 | 38.96878 | -77.45936 | 331 ft | 130 kts | 180° |
| 2026-05-06 19:03 | 38.96034 | -77.45938 | 293 ft | 112 kts | 180° |
| 2026-05-06 19:03 | 38.95492 | -77.45955 | 303 ft | 52 kts | 179° |
| 2026-05-06 19:04 | 38.95199 | -77.45958 | 301 ft | 15 kts | 181° |
| 2026-05-06 19:04 | 38.95088 | -77.45944 | 297 ft | 18 kts | 163° |
| 2026-05-06 19:04 | 38.94959 | -77.45879 | 296 ft | 21 kts | 155° |
| 2026-05-06 19:04 | 38.94878 | -77.45818 | 298 ft | 0 kts | 148° |
| 2026-05-06 19:08 | 38.94874 | -77.45815 | 297 ft | 3 kts | 148° |
| 2026-05-06 19:08 | 38.94846 | -77.45793 | 295 ft | 7 kts | 150° |
| 2026-05-06 19:08 | 38.94789 | -77.45759 | 299 ft | 11 kts | 159° |
| 2026-05-06 19:09 | 38.94709 | -77.45728 | 301 ft | 13 kts | 167° |
| 2026-05-06 19:09 | 38.94699 | -77.45725 | 300 ft | 0 kts | 163° |
| 2026-05-06 19:10 | 38.94698 | -77.45724 | 301 ft | 1 kts | 163° |
| 2026-05-06 19:10 | 38.94666 | -77.45693 | 302 ft | 10 kts | 119° |
| 2026-05-06 19:10 | 38.94668 | -77.45594 | 301 ft | 12 kts | 88° |
| 2026-05-06 19:11 | 38.94668 | -77.45475 | 304 ft | 14 kts | 91° |
| 2026-05-06 19:11 | 38.94666 | -77.45349 | 302 ft | 13 kts | 92° |
| 2026-05-06 19:11 | 38.94665 | -77.45244 | 303 ft | 10 kts | 90° |
| 2026-05-06 19:11 | 38.94664 | -77.45164 | 304 ft | 7 kts | 90° |
| 2026-05-06 19:12 | 38.94663 | -77.45110 | 304 ft | 5 kts | 91° |
| 2026-05-06 19:12 | 38.94662 | -77.45076 | 304 ft | 3 kts | 91° |
| 2026-05-06 19:12 | 38.94662 | -77.45055 | 304 ft | 2 kts | 88° |
| 2026-05-06 19:12 | 38.94662 | -77.45022 | 305 ft | 5 kts | 88° |
| 2026-05-06 19:13 | 38.94663 | -77.44972 | 305 ft | 6 kts | 90° |
| 2026-05-06 19:13 | 38.94663 | -77.44911 | 306 ft | 7 kts | 91° |
| 2026-05-06 19:13 | 38.94661 | -77.44842 | 306 ft | 8 kts | 92° |
| 2026-05-06 19:13 | 38.94659 | -77.44767 | 308 ft | 9 kts | 92° |
| 2026-05-06 19:14 | 38.94636 | -77.44708 | 307 ft | 7 kts | 159° |
| 2026-05-06 19:14 | 38.94602 | -77.44693 | 310 ft | 1 kts | 159° |
| 2026-05-06 19:14 | 38.94600 | -77.44694 | 310 ft | 0 kts | 176° |
| 2026-05-06 19:14 | 38.94597 | -77.44694 | 311 ft | 0 kts | 187° |
| 2026-05-06 19:15 | 38.94601 | -77.44694 | 310 ft | 0 kts | 183° |
| 2026-05-06 19:15 | 38.94596 | -77.44693 | 310 ft | 1 kts | 176° |
| 2026-05-06 19:16 | 38.94592 | -77.44691 | 310 ft | 0 kts | 150° |